WetterOnline ( https://www.wetteronline.at )

Wetter aktuell München

Aktuelles Wetter: München/Stadt (535m)

6-stündlich | Neueste Meldungen
Ortszeit Temperatur Wetter
Fr, 14.06. 8:00 12.9° C bedeckt
Fr, 14.06. 2:00 12.2° C wolkig
Do, 13.06. 20:00 17.5° C wolkenlos
Do, 13.06. 14:00 16.8° C leicht bewölkt
Do, 13.06. 8:00 11.8° C wolkenlos
Do, 13.06. 2:00 11.9° C bedeckt
Mi, 12.06. 20:00 16.1° C wolkig
Mi, 12.06. 14:00 16.4° C bedeckt
Ortszeit Temperatur Wetter
Fr, 14.06. 9:00 15.9° C wolkig
Fr, 14.06. 8:50 15.9° C wolkig
Fr, 14.06. 8:40 15.5° C bedeckt
Fr, 14.06. 8:30 14.2° C bedeckt
Fr, 14.06. 8:20 14.2° C bedeckt
Fr, 14.06. 8:10 13.6° C bedeckt
Fr, 14.06. 8:00 12.9° C bedeckt
Fr, 14.06. 7:30 12.2° C bedeckt
Fr, 14.06. 7:00 11.9° C bedeckt
Fr, 14.06. 6:30 11.2° C bedeckt
Fr, 14.06. 6:00 9.2° C bedeckt
Ortszeit Relative Feuchte Sichtweite
Fr, 14.06. 8:00 68% 60 km
Fr, 14.06. 2:00 74% 55 km
Do, 13.06. 20:00 44% 55 km
Do, 13.06. 14:00 49% 45 km
Do, 13.06. 8:00 72% 40 km
Do, 13.06. 2:00 81% 60 km
Mi, 12.06. 20:00 51% 55 km
Mi, 12.06. 14:00 44% 65 km
Ortszeit Relative Feuchte Sichtweite
Fr, 14.06. 9:00 58% 40 km
Fr, 14.06. 8:50 58% -
Fr, 14.06. 8:40 60% -
Fr, 14.06. 8:30 65% 55 km
Fr, 14.06. 8:20 65% -
Fr, 14.06. 8:10 67% -
Fr, 14.06. 8:00 68% 60 km
Fr, 14.06. 7:30 70% 65 km
Fr, 14.06. 7:00 69% 55 km
Fr, 14.06. 6:30 76% 50 km
Fr, 14.06. 6:00 86% 55 km
Ortszeit Niederschlagsmenge Niederschlagsart
Fr, 14.06. 8:00 0.0 l/m2 in 12 Std. -
Fr, 14.06. 2:00 0.0 l/m2 in 6 Std. -
Do, 13.06. 20:00 0.1 l/m2 in 12 Std. -
Do, 13.06. 14:00 0.1 l/m2 in 6 Std. Regen
Do, 13.06. 8:00 0.0 l/m2 in 12 Std. -
Do, 13.06. 2:00 0.0 l/m2 in 6 Std. -
Mi, 12.06. 20:00 0.0 l/m2 in 12 Std. -
Mi, 12.06. 14:00 0.0 l/m2 in 6 Std. -
Ortszeit Niederschlagsmenge Niederschlagsart
Fr, 14.06. 9:00 0.0 l/m2 in 1 Std. -
Fr, 14.06. 8:50 keine Meldung -
Fr, 14.06. 8:40 keine Meldung -
Fr, 14.06. 8:30 0.0 l/m2 in 30 Min -
Fr, 14.06. 8:20 keine Meldung -
Fr, 14.06. 8:10 keine Meldung -
Fr, 14.06. 8:00 0.0 l/m2 in 1 Std. -
Fr, 14.06. 7:30 0.0 l/m2 in 30 Min -
Fr, 14.06. 7:00 0.0 l/m2 in 1 Std. -
Fr, 14.06. 6:30 0.0 l/m2 in 30 Min -
Fr, 14.06. 6:00 0.0 l/m2 in 1 Std. -
Ortszeit Stärke Spitze Richtung
km/h Bft. km/h Grad Sektor
Fr, 14.06. 8:00 6 1 19 180° S
Fr, 14.06. 2:00 9 2 20 130° SO
Do, 13.06. 20:00 4 1 29 290° W
Do, 13.06. 14:00 11 2 31 310° NW
Do, 13.06. 8:00 15 3 26 350° N
Do, 13.06. 2:00 4 1 22 50° NO
Mi, 12.06. 20:00 11 2 22 50° NO
Mi, 12.06. 14:00 7 2 25 130° SO
Ortszeit Stärke Spitze Richtung
km/h Bft. km/h Grad Sektor
Fr, 14.06. 9:00 7 2 14 200° S
Fr, 14.06. 8:50 7 2 - 200° S
Fr, 14.06. 8:40 6 1 - 190° S
Fr, 14.06. 8:30 6 1 11 170° S
Fr, 14.06. 8:20 6 1 - 170° S
Fr, 14.06. 8:10 4 1 - 170° S
Fr, 14.06. 8:00 6 1 15 180° S
Fr, 14.06. 7:30 7 2 14 160° S
Fr, 14.06. 7:00 9 2 17 160° S
Fr, 14.06. 6:30 4 1 11 140° SO
Fr, 14.06. 6:00 4 1 7 110° O
Ortszeit Untergrenze Bedeckung Gattung
total tief tief mittel hoch
Fr, 14.06. 8:00 4200 m 8/8 8/8 - - -
Fr, 14.06. 2:00 7200 m 8/8 0/8 - - -
Do, 13.06. 20:00 - 0/8 0/8 - - -
Do, 13.06. 14:00 1170 m 2/8 2/8 - - -
Do, 13.06. 8:00 - 0/8 0/8 - - -
Do, 13.06. 2:00 3000 m 8/8 8/8 - - -
Mi, 12.06. 20:00 2700 m 7/8 3/8 - - -
Mi, 12.06. 14:00 1500 m 8/8 8/8 - - -
Ortszeit Bedeckungsgrad in Achtel und Wolkenuntergrenze
Fr, 14.06. 9:00 2(2700m) 8(3600m)
Fr, 14.06. 8:50 2(2700m) 8(3600m)
Fr, 14.06. 8:40 8
Fr, 14.06. 8:30 8(4200m)
Fr, 14.06. 8:20 8(4200m)
Fr, 14.06. 8:10 8
Fr, 14.06. 8:00 8(4200m) 8(6000m)
Fr, 14.06. 7:30 6(3900m) 8(4500m) 8(5700m)
Fr, 14.06. 7:00 8(4800m) 8(5400m)
Fr, 14.06. 6:30 8(4500m) 8(9000m)
Fr, 14.06. 6:00 8(4800m) 8(6000m) 8(9000m)
Ortszeit Luftdruck NN (hPa) Tendenz (hPa in 3 Std.)
Fr, 14.06. 8:00 1014 - 0,5
Fr, 14.06. 2:00 1016 - 1,0
Do, 13.06. 20:00 1016 - 0,5
Do, 13.06. 14:00 1017 - 0,5
Do, 13.06. 8:00 1018 + 1,1
Do, 13.06. 2:00 1017 - 0,3
Mi, 12.06. 20:00 1016 - 0,4
Mi, 12.06. 14:00 1017 - 0,7
Ortszeit Luftdruck NN (hPa) Tendenz (hPa in 3 Std.)
Fr, 14.06. 9:00 1013 - 0,5
Fr, 14.06. 8:50 1013 keine Meldung
Fr, 14.06. 8:40 1013 keine Meldung
Fr, 14.06. 8:30 1014 - 0,4
Fr, 14.06. 8:20 1014 keine Meldung
Fr, 14.06. 8:10 1014 keine Meldung
Fr, 14.06. 8:00 1014 - 0,5
Fr, 14.06. 7:30 1014 - 0,4
Fr, 14.06. 7:00 1014 - 0,6
Fr, 14.06. 6:30 1015 - 0,7
Fr, 14.06. 6:00 1015 - 0,7
Ortszeit Schneehöhe (cm)
Fr, 14.06. 8:00 0
Fr, 14.06. 2:00 0
Do, 13.06. 20:00 0
Do, 13.06. 14:00 0
Do, 13.06. 8:00 0
Do, 13.06. 2:00 0
Mi, 12.06. 20:00 0
Mi, 12.06. 14:00 0
Ortszeit Schneehöhe (cm)
Fr, 14.06. 9:00 0
Fr, 14.06. 8:50 0
Fr, 14.06. 8:40 -
Fr, 14.06. 8:30 0
Fr, 14.06. 8:20 0
Fr, 14.06. 8:10 -
Fr, 14.06. 8:00 0
Fr, 14.06. 7:30 0
Fr, 14.06. 7:00 0
Fr, 14.06. 6:30 0
Fr, 14.06. 6:00 0
Link zu dieser Seite / Seite empfehlen

Das Wetter in ...